sensor_id;sensor_type;location;lat;lon;timestamp;pressure;altitude;pressure_sealevel;temperature;humidity
63694;BME280;49839;51.798;10.954;2023-06-04T00:00:40;99575.06;;;12.25;49.56
63694;BME280;49839;51.798;10.954;2023-06-04T00:03:08;99578.69;;;12.22;49.76
63694;BME280;49839;51.798;10.954;2023-06-04T00:05:35;99579.81;;;12.18;50.05
63694;BME280;49839;51.798;10.954;2023-06-04T00:08:03;99576.38;;;12.16;50.16
63694;BME280;49839;51.798;10.954;2023-06-04T00:10:31;99574.16;;;12.08;50.34
63694;BME280;49839;51.798;10.954;2023-06-04T00:13:00;99571.84;;;12.02;50.39
63694;BME280;49839;51.798;10.954;2023-06-04T00:15:29;99564.09;;;11.99;50.45
63694;BME280;49839;51.798;10.954;2023-06-04T00:17:56;99568.69;;;11.96;50.16
63694;BME280;49839;51.798;10.954;2023-06-04T00:20:24;99569.53;;;11.96;50.34
63694;BME280;49839;51.798;10.954;2023-06-04T00:22:52;99563.81;;;11.88;50.66
63694;BME280;49839;51.798;10.954;2023-06-04T00:25:19;99573.53;;;11.87;50.57
63694;BME280;49839;51.798;10.954;2023-06-04T00:27:47;99571.88;;;11.85;50.84
63694;BME280;49839;51.798;10.954;2023-06-04T00:30:15;99563.13;;;11.84;50.99
63694;BME280;49839;51.798;10.954;2023-06-04T00:32:44;99565.06;;;11.81;50.71
63694;BME280;49839;51.798;10.954;2023-06-04T00:35:13;99570.47;;;11.78;50.58
63694;BME280;49839;51.798;10.954;2023-06-04T00:37:41;99565.28;;;11.76;50.91
63694;BME280;49839;51.798;10.954;2023-06-04T00:40:09;99564.44;;;11.76;50.66
63694;BME280;49839;51.798;10.954;2023-06-04T00:42:37;99564.50;;;11.74;50.09
63694;BME280;49839;51.798;10.954;2023-06-04T00:45:06;99552.94;;;11.77;49.87
63694;BME280;49839;51.798;10.954;2023-06-04T00:47:36;99555.66;;;11.75;50.10
63694;BME280;49839;51.798;10.954;2023-06-04T00:50:06;99548.81;;;11.71;50.57
63694;BME280;49839;51.798;10.954;2023-06-04T00:52:34;99557.69;;;11.70;50.43
63694;BME280;49839;51.798;10.954;2023-06-04T00:55:03;99560.41;;;11.69;50.63
63694;BME280;49839;51.798;10.954;2023-06-04T00:57:31;99564.91;;;11.66;50.42
63694;BME280;49839;51.798;10.954;2023-06-04T00:59:58;99563.28;;;11.64;50.93
63694;BME280;49839;51.798;10.954;2023-06-04T01:02:27;99559.09;;;11.60;50.94
63694;BME280;49839;51.798;10.954;2023-06-04T01:05:02;99562.81;;;11.56;51.23
63694;BME280;49839;51.798;10.954;2023-06-04T01:07:32;99564.00;;;11.50;51.37
63694;BME280;49839;51.798;10.954;2023-06-04T01:09:59;99561.44;;;11.49;51.83
63694;BME280;49839;51.798;10.954;2023-06-04T01:12:27;99561.56;;;11.46;51.92
63694;BME280;49839;51.798;10.954;2023-06-04T01:14:55;99561.84;;;11.41;51.95
63694;BME280;49839;51.798;10.954;2023-06-04T01:17:26;99565.63;;;11.35;52.52
63694;BME280;49839;51.798;10.954;2023-06-04T01:20:22;99559.97;;;11.26;52.89
63694;BME280;49839;51.798;10.954;2023-06-04T01:23:10;99560.34;;;11.18;53.05
63694;BME280;49839;51.798;10.954;2023-06-04T01:25:41;99556.16;;;11.14;53.31
63694;BME280;49839;51.798;10.954;2023-06-04T01:28:11;99561.50;;;11.12;53.50
63694;BME280;49839;51.798;10.954;2023-06-04T01:30:41;99558.00;;;11.12;53.50
63694;BME280;49839;51.798;10.954;2023-06-04T01:33:13;99557.25;;;11.10;53.63
63694;BME280;49839;51.798;10.954;2023-06-04T01:35:41;99559.25;;;11.05;53.63
63694;BME280;49839;51.798;10.954;2023-06-04T01:38:10;99561.25;;;11.00;54.18
63694;BME280;49839;51.798;10.954;2023-06-04T01:40:38;99551.00;;;10.94;54.17
63694;BME280;49839;51.798;10.954;2023-06-04T01:43:07;99557.38;;;10.90;54.55
63694;BME280;49839;51.798;10.954;2023-06-04T01:45:35;99555.19;;;10.80;54.22
63694;BME280;49839;51.798;10.954;2023-06-04T01:48:04;99565.25;;;10.72;54.63
63694;BME280;49839;51.798;10.954;2023-06-04T01:50:32;99559.91;;;10.74;54.84
63694;BME280;49839;51.798;10.954;2023-06-04T01:53:00;99567.25;;;10.67;54.84
63694;BME280;49839;51.798;10.954;2023-06-04T01:55:50;99566.56;;;10.64;55.60
63694;BME280;49839;51.798;10.954;2023-06-04T01:58:17;99565.75;;;10.62;55.50
63694;BME280;49839;51.798;10.954;2023-06-04T02:00:53;99560.78;;;10.55;55.19
63694;BME280;49839;51.798;10.954;2023-06-04T02:03:21;99560.00;;;10.53;55.83
63694;BME280;49839;51.798;10.954;2023-06-04T02:05:49;99560.22;;;10.49;56.07
63694;BME280;49839;51.798;10.954;2023-06-04T02:08:17;99553.41;;;10.45;56.41
63694;BME280;49839;51.798;10.954;2023-06-04T02:10:46;99555.38;;;10.40;56.66
63694;BME280;49839;51.798;10.954;2023-06-04T02:13:16;99559.09;;;10.36;56.84
63694;BME280;49839;51.798;10.954;2023-06-04T02:15:46;99556.53;;;10.34;56.28
63694;BME280;49839;51.798;10.954;2023-06-04T02:18:15;99552.28;;;10.32;56.48
63694;BME280;49839;51.798;10.954;2023-06-04T02:20:44;99558.47;;;10.30;56.49
63694;BME280;49839;51.798;10.954;2023-06-04T02:23:13;99555.97;;;10.27;56.84
63694;BME280;49839;51.798;10.954;2023-06-04T02:25:40;99557.66;;;10.28;56.39
63694;BME280;49839;51.798;10.954;2023-06-04T02:28:11;99554.19;;;10.28;56.94
63694;BME280;49839;51.798;10.954;2023-06-04T02:30:40;99556.88;;;10.26;56.74
63694;BME280;49839;51.798;10.954;2023-06-04T02:33:08;99562.94;;;10.28;56.93
63694;BME280;49839;51.798;10.954;2023-06-04T02:35:37;99546.19;;;10.29;56.64
63694;BME280;49839;51.798;10.954;2023-06-04T02:38:05;99548.84;;;10.29;56.28
63694;BME280;49839;51.798;10.954;2023-06-04T02:40:32;99557.59;;;10.30;56.06
63694;BME280;49839;51.798;10.954;2023-06-04T02:43:00;99550.63;;;10.29;55.39
63694;BME280;49839;51.798;10.954;2023-06-04T02:45:28;99554.91;;;10.32;56.31
63694;BME280;49839;51.798;10.954;2023-06-04T02:47:57;99562.00;;;10.29;56.46
63694;BME280;49839;51.798;10.954;2023-06-04T02:50:25;99562.16;;;10.26;56.87
63694;BME280;49839;51.798;10.954;2023-06-04T02:52:52;99554.25;;;10.26;56.98
63694;BME280;49839;51.798;10.954;2023-06-04T02:55:20;99558.75;;;10.24;56.62
63694;BME280;49839;51.798;10.954;2023-06-04T02:57:49;99554.50;;;10.20;56.94
63694;BME280;49839;51.798;10.954;2023-06-04T03:16:27;99567.38;;;10.08;58.17
63694;BME280;49839;51.798;10.954;2023-06-04T03:21:34;99561.25;;;10.07;58.53
63694;BME280;49839;51.798;10.954;2023-06-04T03:24:02;99564.81;;;10.06;58.58
63694;BME280;49839;51.798;10.954;2023-06-04T03:26:30;99564.81;;;10.06;58.57
63694;BME280;49839;51.798;10.954;2023-06-04T03:28:57;99566.38;;;10.10;58.28
63694;BME280;49839;51.798;10.954;2023-06-04T03:31:26;99567.22;;;10.11;57.96
63694;BME280;49839;51.798;10.954;2023-06-04T03:33:57;99570.94;;;10.07;58.29
63694;BME280;49839;51.798;10.954;2023-06-04T03:36:29;99567.47;;;10.06;58.57
63694;BME280;49839;51.798;10.954;2023-06-04T03:38:58;99569.84;;;10.11;58.58
63694;BME280;49839;51.798;10.954;2023-06-04T03:41:27;99568.69;;;10.18;58.47
63694;BME280;49839;51.798;10.954;2023-06-04T03:54:38;99561.88;;;10.51;58.31
63694;BME280;49839;51.798;10.954;2023-06-04T04:05:12;99557.59;;;11.89;54.48
63694;BME280;49839;51.798;10.954;2023-06-04T04:07:42;99558.63;;;12.51;53.61
63694;BME280;49839;51.798;10.954;2023-06-04T04:10:14;99559.06;;;13.05;52.06
63694;BME280;49839;51.798;10.954;2023-06-04T04:12:42;99549.50;;;13.63;51.66
63694;BME280;49839;51.798;10.954;2023-06-04T04:15:15;99552.56;;;14.14;50.01
63694;BME280;49839;51.798;10.954;2023-06-04T04:17:52;99552.38;;;14.72;48.32
63694;BME280;49839;51.798;10.954;2023-06-04T04:20:20;99556.69;;;15.14;46.50
63694;BME280;49839;51.798;10.954;2023-06-04T04:22:48;99550.47;;;15.54;45.55
63694;BME280;49839;51.798;10.954;2023-06-04T04:25:18;99549.13;;;15.99;44.66
63694;BME280;49839;51.798;10.954;2023-06-04T04:27:46;99557.91;;;16.38;43.71
63694;BME280;49839;51.798;10.954;2023-06-04T04:30:15;99562.19;;;16.77;42.55
63694;BME280;49839;51.798;10.954;2023-06-04T04:32:44;99551.75;;;16.98;42.70
63694;BME280;49839;51.798;10.954;2023-06-04T04:35:17;99560.00;;;17.30;42.22
63694;BME280;49839;51.798;10.954;2023-06-04T04:37:45;99555.59;;;17.53;41.80
63694;BME280;49839;51.798;10.954;2023-06-04T04:40:13;99563.91;;;17.72;40.81
63694;BME280;49839;51.798;10.954;2023-06-04T04:42:44;99559.31;;;17.97;40.64
63694;BME280;49839;51.798;10.954;2023-06-04T04:45:43;99568.91;;;18.33;40.03
63694;BME280;49839;51.798;10.954;2023-06-04T04:48:10;99561.75;;;18.56;40.14
63694;BME280;49839;51.798;10.954;2023-06-04T04:50:38;99571.31;;;18.70;39.33
63694;BME280;49839;51.798;10.954;2023-06-04T04:53:06;99571.25;;;18.92;38.98
63694;BME280;49839;51.798;10.954;2023-06-04T04:55:34;99573.38;;;19.09;38.97
63694;BME280;49839;51.798;10.954;2023-06-04T04:58:02;99568.25;;;19.17;38.47
63694;BME280;49839;51.798;10.954;2023-06-04T05:00:29;99566.34;;;19.40;38.66
63694;BME280;49839;51.798;10.954;2023-06-04T05:02:58;99566.13;;;19.64;37.61
63694;BME280;49839;51.798;10.954;2023-06-04T05:05:26;99569.69;;;19.74;37.02
63694;BME280;49839;51.798;10.954;2023-06-04T05:07:56;99570.78;;;19.93;37.13
63694;BME280;49839;51.798;10.954;2023-06-04T05:10:24;99566.25;;;20.14;36.73
63694;BME280;49839;51.798;10.954;2023-06-04T05:12:52;99568.31;;;20.32;36.38
63694;BME280;49839;51.798;10.954;2023-06-04T05:15:20;99573.78;;;20.30;36.80
63694;BME280;49839;51.798;10.954;2023-06-04T05:17:48;99570.63;;;20.46;36.46
63694;BME280;49839;51.798;10.954;2023-06-04T05:20:20;99576.28;;;20.52;35.34
63694;BME280;49839;51.798;10.954;2023-06-04T05:22:49;99567.59;;;20.70;35.12
63694;BME280;49839;51.798;10.954;2023-06-04T05:25:18;99580.16;;;20.79;35.30
63694;BME280;49839;51.798;10.954;2023-06-04T05:27:46;99582.06;;;21.07;33.56
63694;BME280;49839;51.798;10.954;2023-06-04T05:30:15;99582.78;;;21.48;32.80
63694;BME280;49839;51.798;10.954;2023-06-04T05:32:43;99577.72;;;21.65;32.27
63694;BME280;49839;51.798;10.954;2023-06-04T05:35:11;99578.41;;;21.67;32.53
63694;BME280;49839;51.798;10.954;2023-06-04T05:37:40;99584.88;;;21.83;32.34
63694;BME280;49839;51.798;10.954;2023-06-04T05:40:09;99578.78;;;21.91;32.23
63694;BME280;49839;51.798;10.954;2023-06-04T05:42:37;99579.31;;;21.95;31.50
63694;BME280;49839;51.798;10.954;2023-06-04T05:45:06;99581.38;;;22.30;31.11
63694;BME280;49839;51.798;10.954;2023-06-04T05:47:34;99578.78;;;22.65;31.29
63694;BME280;49839;51.798;10.954;2023-06-04T05:50:04;99580.28;;;22.78;30.69
63694;BME280;49839;51.798;10.954;2023-06-04T05:52:32;99580.50;;;23.12;30.28
63694;BME280;49839;51.798;10.954;2023-06-04T05:55:02;99590.88;;;23.24;29.73
63694;BME280;49839;51.798;10.954;2023-06-04T05:57:30;99587.19;;;23.26;30.12
63694;BME280;49839;51.798;10.954;2023-06-04T05:59:58;99588.72;;;23.28;29.79
63694;BME280;49839;51.798;10.954;2023-06-04T06:02:26;99584.03;;;23.66;29.14
63694;BME280;49839;51.798;10.954;2023-06-04T06:04:54;99585.50;;;24.04;28.26
63694;BME280;49839;51.798;10.954;2023-06-04T06:07:22;99589.88;;;23.61;27.41
63694;BME280;49839;51.798;10.954;2023-06-04T06:09:50;99584.81;;;23.40;28.50
63694;BME280;49839;51.798;10.954;2023-06-04T06:12:20;99597.81;;;23.45;28.84
63694;BME280;49839;51.798;10.954;2023-06-04T06:14:47;99603.72;;;23.66;28.45
63694;BME280;49839;51.798;10.954;2023-06-04T06:17:15;99598.97;;;24.04;28.30
63694;BME280;49839;51.798;10.954;2023-06-04T06:19:43;99594.41;;;24.04;29.01
63694;BME280;49839;51.798;10.954;2023-06-04T06:22:11;99602.53;;;23.87;29.79
63694;BME280;49839;51.798;10.954;2023-06-04T06:24:39;99598.44;;;23.83;29.47
63694;BME280;49839;51.798;10.954;2023-06-04T06:27:07;99600.84;;;23.86;29.25
63694;BME280;49839;51.798;10.954;2023-06-04T06:29:36;99602.78;;;24.01;29.87
63694;BME280;49839;51.798;10.954;2023-06-04T06:32:05;99607.75;;;24.14;29.81
63694;BME280;49839;51.798;10.954;2023-06-04T06:34:33;99603.06;;;24.16;29.19
63694;BME280;49839;51.798;10.954;2023-06-04T06:37:01;99619.31;;;24.32;29.63
63694;BME280;49839;51.798;10.954;2023-06-04T06:39:29;99613.78;;;24.08;29.17
63694;BME280;49839;51.798;10.954;2023-06-04T06:41:57;99621.03;;;24.34;28.99
63694;BME280;49839;51.798;10.954;2023-06-04T06:44:24;99621.16;;;24.32;28.64
63694;BME280;49839;51.798;10.954;2023-06-04T06:46:54;99622.63;;;24.52;28.62
63694;BME280;49839;51.798;10.954;2023-06-04T06:49:22;99614.25;;;24.55;28.66
63694;BME280;49839;51.798;10.954;2023-06-04T06:51:50;99624.31;;;24.88;28.91
63694;BME280;49839;51.798;10.954;2023-06-04T06:54:18;99628.88;;;24.95;28.96
63694;BME280;49839;51.798;10.954;2023-06-04T06:56:48;99621.72;;;24.70;28.14
63694;BME280;49839;51.798;10.954;2023-06-04T06:59:17;99634.38;;;24.77;28.90
63694;BME280;49839;51.798;10.954;2023-06-04T07:01:45;99632.59;;;24.94;28.61
63694;BME280;49839;51.798;10.954;2023-06-04T07:04:15;99633.38;;;24.78;28.84
63694;BME280;49839;51.798;10.954;2023-06-04T07:06:43;99628.34;;;24.92;28.05
63694;BME280;49839;51.798;10.954;2023-06-04T07:09:12;99621.91;;;25.19;28.43
63694;BME280;49839;51.798;10.954;2023-06-04T07:11:40;99626.38;;;25.02;27.04
63694;BME280;49839;51.798;10.954;2023-06-04T07:14:08;99628.66;;;25.23;28.05
63694;BME280;49839;51.798;10.954;2023-06-04T07:16:36;99624.06;;;25.07;27.74
63694;BME280;49839;51.798;10.954;2023-06-04T07:19:04;99625.13;;;25.63;27.34
63694;BME280;49839;51.798;10.954;2023-06-04T07:21:33;99635.75;;;25.56;27.48
63694;BME280;49839;51.798;10.954;2023-06-04T07:24:01;99631.56;;;25.37;27.67
63694;BME280;49839;51.798;10.954;2023-06-04T07:26:28;99624.31;;;25.62;26.11
63694;BME280;49839;51.798;10.954;2023-06-04T07:29:00;99625.88;;;25.89;25.53
63694;BME280;49839;51.798;10.954;2023-06-04T07:31:28;99630.56;;;25.71;26.18
63694;BME280;49839;51.798;10.954;2023-06-04T07:33:56;99633.91;;;26.14;24.86
63694;BME280;49839;51.798;10.954;2023-06-04T07:36:24;99631.06;;;26.07;23.86
63694;BME280;49839;51.798;10.954;2023-06-04T07:38:53;99632.06;;;26.14;24.58
63694;BME280;49839;51.798;10.954;2023-06-04T07:41:21;99637.28;;;26.40;24.45
63694;BME280;49839;51.798;10.954;2023-06-04T07:43:49;99634.91;;;26.29;23.84
63694;BME280;49839;51.798;10.954;2023-06-04T07:46:17;99640.72;;;25.85;23.89
63694;BME280;49839;51.798;10.954;2023-06-04T07:48:45;99641.03;;;26.07;23.97
63694;BME280;49839;51.798;10.954;2023-06-04T07:51:13;99639.97;;;26.40;23.07
63694;BME280;49839;51.798;10.954;2023-06-04T07:53:41;99645.25;;;26.17;23.17
63694;BME280;49839;51.798;10.954;2023-06-04T07:56:12;99643.03;;;26.29;22.73
63694;BME280;49839;51.798;10.954;2023-06-04T07:58:40;99641.69;;;26.41;22.75
63694;BME280;49839;51.798;10.954;2023-06-04T08:01:09;99639.63;;;26.35;22.76
63694;BME280;49839;51.798;10.954;2023-06-04T08:03:36;99639.47;;;26.45;22.71
63694;BME280;49839;51.798;10.954;2023-06-04T08:06:08;99639.34;;;26.78;22.31
63694;BME280;49839;51.798;10.954;2023-06-04T08:08:37;99633.06;;;26.85;22.46
63694;BME280;49839;51.798;10.954;2023-06-04T08:11:05;99633.03;;;26.93;21.60
63694;BME280;49839;51.798;10.954;2023-06-04T08:13:35;99634.78;;;26.78;21.36
63694;BME280;49839;51.798;10.954;2023-06-04T08:16:03;99634.06;;;27.23;20.48
63694;BME280;49839;51.798;10.954;2023-06-04T08:18:31;99634.72;;;27.57;20.72
63694;BME280;49839;51.798;10.954;2023-06-04T08:20:59;99639.56;;;27.38;21.06
63694;BME280;49839;51.798;10.954;2023-06-04T08:23:27;99635.47;;;27.65;21.98
63694;BME280;49839;51.798;10.954;2023-06-04T08:25:55;99630.88;;;27.43;21.74
63694;BME280;49839;51.798;10.954;2023-06-04T08:28:23;99632.75;;;27.42;19.96
63694;BME280;49839;51.798;10.954;2023-06-04T08:30:52;99623.84;;;27.03;21.27
63694;BME280;49839;51.798;10.954;2023-06-04T08:33:20;99630.34;;;26.85;21.39
63694;BME280;49839;51.798;10.954;2023-06-04T08:35:55;99635.88;;;26.92;22.59
63694;BME280;49839;51.798;10.954;2023-06-04T08:38:30;99636.06;;;26.98;21.18
63694;BME280;49839;51.798;10.954;2023-06-04T08:44:03;99648.22;;;27.34;21.62
63694;BME280;49839;51.798;10.954;2023-06-04T08:46:37;99645.22;;;27.74;20.22
63694;BME280;49839;51.798;10.954;2023-06-04T08:49:06;99639.34;;;27.71;20.67
63694;BME280;49839;51.798;10.954;2023-06-04T08:51:36;99646.13;;;27.67;21.14
63694;BME280;49839;51.798;10.954;2023-06-04T08:54:05;99641.31;;;27.54;21.12
63694;BME280;49839;51.798;10.954;2023-06-04T08:56:34;99641.63;;;27.59;19.68
63694;BME280;49839;51.798;10.954;2023-06-04T08:59:02;99649.75;;;27.82;20.58
63694;BME280;49839;51.798;10.954;2023-06-04T09:01:30;99638.16;;;27.42;20.58
63694;BME280;49839;51.798;10.954;2023-06-04T09:04:03;99639.00;;;26.81;21.06
63694;BME280;49839;51.798;10.954;2023-06-04T09:06:33;99644.69;;;26.55;21.16
63694;BME280;49839;51.798;10.954;2023-06-04T09:09:03;99632.06;;;26.14;21.82
63694;BME280;49839;51.798;10.954;2023-06-04T09:11:35;99633.88;;;26.38;22.16
63694;BME280;49839;51.798;10.954;2023-06-04T09:14:14;99643.34;;;26.34;23.55
63694;BME280;49839;51.798;10.954;2023-06-04T09:16:45;99638.66;;;26.12;21.77
63694;BME280;49839;51.798;10.954;2023-06-04T09:19:14;99643.69;;;26.31;22.60
63694;BME280;49839;51.798;10.954;2023-06-04T09:21:49;99642.66;;;26.32;21.11
63694;BME280;49839;51.798;10.954;2023-06-04T09:24:17;99639.88;;;26.73;20.74
63694;BME280;49839;51.798;10.954;2023-06-04T09:26:45;99638.09;;;26.49;21.03
63694;BME280;49839;51.798;10.954;2023-06-04T09:29:12;99644.03;;;26.44;22.95
63694;BME280;49839;51.798;10.954;2023-06-04T09:31:44;99644.38;;;26.25;23.19
63694;BME280;49839;51.798;10.954;2023-06-04T09:34:14;99637.28;;;26.88;20.59
63694;BME280;49839;51.798;10.954;2023-06-04T09:36:42;99639.91;;;27.35;20.20
63694;BME280;49839;51.798;10.954;2023-06-04T09:39:17;99625.59;;;27.49;20.82
63694;BME280;49839;51.798;10.954;2023-06-04T09:41:57;99640.38;;;27.16;22.44
63694;BME280;49839;51.798;10.954;2023-06-04T09:44:24;99641.63;;;27.05;21.18
63694;BME280;49839;51.798;10.954;2023-06-04T09:46:55;99641.53;;;27.67;20.31
63694;BME280;49839;51.798;10.954;2023-06-04T09:49:25;99634.28;;;27.91;20.09
63694;BME280;49839;51.798;10.954;2023-06-04T09:51:53;99644.09;;;27.92;19.58
63694;BME280;49839;51.798;10.954;2023-06-04T09:54:21;99650.66;;;28.35;18.79
63694;BME280;49839;51.798;10.954;2023-06-04T09:56:48;99647.09;;;28.49;18.28
63694;BME280;49839;51.798;10.954;2023-06-04T09:59:16;99645.50;;;28.55;21.01
63694;BME280;49839;51.798;10.954;2023-06-04T10:01:45;99640.34;;;28.45;19.35
63694;BME280;49839;51.798;10.954;2023-06-04T10:04:13;99642.41;;;27.91;19.96
63694;BME280;49839;51.798;10.954;2023-06-04T10:06:43;99642.47;;;27.83;19.60
63694;BME280;49839;51.798;10.954;2023-06-04T10:09:12;99635.28;;;27.67;20.11
63694;BME280;49839;51.798;10.954;2023-06-04T10:11:46;99635.16;;;28.06;19.88
63694;BME280;49839;51.798;10.954;2023-06-04T10:14:18;99636.75;;;28.15;19.61
63694;BME280;49839;51.798;10.954;2023-06-04T10:16:47;99629.47;;;28.30;19.52
63694;BME280;49839;51.798;10.954;2023-06-04T10:19:18;99631.91;;;28.25;19.69
63694;BME280;49839;51.798;10.954;2023-06-04T10:21:47;99632.16;;;28.53;19.75
63694;BME280;49839;51.798;10.954;2023-06-04T10:24:15;99634.09;;;28.45;20.42
63694;BME280;49839;51.798;10.954;2023-06-04T10:26:44;99632.56;;;28.27;18.81
63694;BME280;49839;51.798;10.954;2023-06-04T10:29:12;99625.97;;;28.07;18.90
63694;BME280;49839;51.798;10.954;2023-06-04T10:31:40;99631.09;;;28.40;18.92
63694;BME280;49839;51.798;10.954;2023-06-04T10:34:08;99624.63;;;28.85;19.40
63694;BME280;49839;51.798;10.954;2023-06-04T10:36:42;99627.81;;;28.59;18.79
63694;BME280;49839;51.798;10.954;2023-06-04T10:39:11;99625.75;;;28.46;20.19
63694;BME280;49839;51.798;10.954;2023-06-04T10:41:39;99620.94;;;27.89;20.56
63694;BME280;49839;51.798;10.954;2023-06-04T10:44:07;99636.94;;;27.22;21.83
63694;BME280;49839;51.798;10.954;2023-06-04T10:46:37;99626.78;;;26.93;21.60
63694;BME280;49839;51.798;10.954;2023-06-04T10:49:07;99623.97;;;26.78;21.16
63694;BME280;49839;51.798;10.954;2023-06-04T10:51:35;99625.97;;;26.29;21.52
63694;BME280;49839;51.798;10.954;2023-06-04T10:54:05;99623.41;;;26.27;21.45
63694;BME280;49839;51.798;10.954;2023-06-04T10:56:35;99619.59;;;26.05;21.72
63694;BME280;49839;51.798;10.954;2023-06-04T10:59:13;99620.44;;;26.06;22.01
63694;BME280;49839;51.798;10.954;2023-06-04T11:01:41;99622.28;;;26.13;22.13
63694;BME280;49839;51.798;10.954;2023-06-04T11:04:18;99623.78;;;25.43;22.14
63694;BME280;49839;51.798;10.954;2023-06-04T11:06:46;99625.47;;;25.27;22.66
63694;BME280;49839;51.798;10.954;2023-06-04T11:09:14;99625.31;;;25.45;23.71
63694;BME280;49839;51.798;10.954;2023-06-04T11:11:56;99622.59;;;25.37;22.05
63694;BME280;49839;51.798;10.954;2023-06-04T11:14:24;99618.13;;;25.03;23.19
63694;BME280;49839;51.798;10.954;2023-06-04T11:16:51;99626.72;;;24.30;23.30
63694;BME280;49839;51.798;10.954;2023-06-04T11:19:19;99633.25;;;24.02;24.33
63694;BME280;49839;51.798;10.954;2023-06-04T11:21:47;99626.72;;;24.04;23.40
63694;BME280;49839;51.798;10.954;2023-06-04T11:24:16;99622.75;;;23.91;24.24
63694;BME280;49839;51.798;10.954;2023-06-04T11:26:46;99625.06;;;23.86;23.15
63694;BME280;49839;51.798;10.954;2023-06-04T11:29:34;99622.44;;;23.94;24.33
63694;BME280;49839;51.798;10.954;2023-06-04T11:32:02;99611.38;;;23.79;23.69
63694;BME280;49839;51.798;10.954;2023-06-04T11:34:30;99613.00;;;23.90;23.96
63694;BME280;49839;51.798;10.954;2023-06-04T11:37:07;99615.16;;;24.12;24.87
63694;BME280;49839;51.798;10.954;2023-06-04T11:39:36;99616.31;;;24.10;23.24
63694;BME280;49839;51.798;10.954;2023-06-04T11:42:16;99609.38;;;24.33;23.99
63694;BME280;49839;51.798;10.954;2023-06-04T11:44:45;99613.06;;;24.58;24.47
63694;BME280;49839;51.798;10.954;2023-06-04T11:47:18;99612.66;;;24.19;24.00
63694;BME280;49839;51.798;10.954;2023-06-04T11:49:46;99619.91;;;23.92;23.54
63694;BME280;49839;51.798;10.954;2023-06-04T11:52:18;99625.75;;;23.70;25.27
63694;BME280;49839;51.798;10.954;2023-06-04T11:54:47;99619.63;;;23.77;24.53
63694;BME280;49839;51.798;10.954;2023-06-04T11:57:17;99617.22;;;23.57;24.95
63694;BME280;49839;51.798;10.954;2023-06-04T11:59:45;99623.06;;;23.34;24.16
63694;BME280;49839;51.798;10.954;2023-06-04T12:02:12;99614.22;;;23.24;24.76
63694;BME280;49839;51.798;10.954;2023-06-04T12:04:40;99612.22;;;23.44;24.78
63694;BME280;49839;51.798;10.954;2023-06-04T12:07:08;99599.56;;;23.36;24.10
63694;BME280;49839;51.798;10.954;2023-06-04T12:09:37;99604.94;;;23.54;23.68
63694;BME280;49839;51.798;10.954;2023-06-04T12:12:07;99609.47;;;23.54;23.89
63694;BME280;49839;51.798;10.954;2023-06-04T12:14:36;99604.94;;;23.36;23.76
63694;BME280;49839;51.798;10.954;2023-06-04T12:17:06;99609.84;;;23.41;24.26
63694;BME280;49839;51.798;10.954;2023-06-04T12:19:46;99602.78;;;23.40;23.83
63694;BME280;49839;51.798;10.954;2023-06-04T12:22:14;99609.19;;;23.39;24.13
63694;BME280;49839;51.798;10.954;2023-06-04T12:24:47;99614.28;;;23.50;24.84
63694;BME280;49839;51.798;10.954;2023-06-04T12:27:15;99605.31;;;23.23;24.52
63694;BME280;49839;51.798;10.954;2023-06-04T12:29:54;99597.06;;;22.80;26.26
63694;BME280;49839;51.798;10.954;2023-06-04T12:32:21;99599.16;;;22.86;25.36
63694;BME280;49839;51.798;10.954;2023-06-04T12:34:49;99591.63;;;22.71;24.57
63694;BME280;49839;51.798;10.954;2023-06-04T12:37:17;99587.56;;;22.67;24.92
63694;BME280;49839;51.798;10.954;2023-06-04T12:39:45;99595.31;;;22.70;25.59
63694;BME280;49839;51.798;10.954;2023-06-04T12:42:12;99596.94;;;22.81;26.38
63694;BME280;49839;51.798;10.954;2023-06-04T12:44:41;99591.41;;;22.83;26.24
63694;BME280;49839;51.798;10.954;2023-06-04T12:47:10;99586.72;;;22.85;26.25
63694;BME280;49839;51.798;10.954;2023-06-04T12:49:38;99593.09;;;22.84;26.54
63694;BME280;49839;51.798;10.954;2023-06-04T12:52:06;99591.03;;;22.78;25.49
63694;BME280;49839;51.798;10.954;2023-06-04T12:54:33;99591.69;;;22.80;26.44
63694;BME280;49839;51.798;10.954;2023-06-04T12:57:01;99593.47;;;22.98;25.69
63694;BME280;49839;51.798;10.954;2023-06-04T12:59:29;99588.84;;;22.91;25.06
63694;BME280;49839;51.798;10.954;2023-06-04T13:01:57;99585.63;;;22.87;25.96
63694;BME280;49839;51.798;10.954;2023-06-04T13:04:26;99593.09;;;22.93;26.14
63694;BME280;49839;51.798;10.954;2023-06-04T13:06:53;99577.75;;;22.76;26.09
63694;BME280;49839;51.798;10.954;2023-06-04T13:09:25;99583.41;;;22.46;26.75
63694;BME280;49839;51.798;10.954;2023-06-04T13:11:54;99592.72;;;22.51;27.14
63694;BME280;49839;51.798;10.954;2023-06-04T13:14:22;99593.91;;;22.66;26.33
63694;BME280;49839;51.798;10.954;2023-06-04T13:16:50;99590.69;;;22.63;26.03
63694;BME280;49839;51.798;10.954;2023-06-04T13:19:18;99585.94;;;22.47;25.56
63694;BME280;49839;51.798;10.954;2023-06-04T13:21:48;99585.25;;;22.45;25.61
63694;BME280;49839;51.798;10.954;2023-06-04T13:24:16;99587.66;;;22.48;25.65
63694;BME280;49839;51.798;10.954;2023-06-04T13:26:43;99589.34;;;22.49;25.45
63694;BME280;49839;51.798;10.954;2023-06-04T13:29:11;99587.25;;;22.43;26.65
63694;BME280;49839;51.798;10.954;2023-06-04T13:31:40;99591.81;;;22.60;25.83
63694;BME280;49839;51.798;10.954;2023-06-04T13:34:07;99597.59;;;22.65;26.67
63694;BME280;49839;51.798;10.954;2023-06-04T13:36:54;99591.28;;;22.57;26.86
63694;BME280;49839;51.798;10.954;2023-06-04T13:39:22;99582.97;;;22.50;26.98
63694;BME280;49839;51.798;10.954;2023-06-04T13:41:50;99587.00;;;22.36;26.10